AirNav   TITAN Aviation Fuels
 
 1377 users online  

GA50 Dream Team Airport
Madison, Georgia, USA

GOING TO MADISON?


FAA INFORMATION EFFECTIVE 04 NOVEMBER 2021

Location

FAA Identifier: GA50
Lat/Long: 33-35-51.0000N 083-31-04.0000W
33-35.850000N 083-31.066667W
33.5975000,-83.5177778
(estimated)
Elevation: 604 ft. / 184 m (estimated)
Variation: 04W (2000)
From city: 3 miles NW of MADISON, GA
Time zone: UTC -4 (UTC -5 during Standard Time)
Zip code: 30650

Airport Operations

Airport use: Private use. Permission required prior to landing
Activation date: 01/2003
Control tower: no
ARTCC: ATLANTA CENTER
FSS: MACON FLIGHT SERVICE STATION
Attendance: IREG
Wind indicator: yes
Segmented circle: no

Airport Communications

WX AWOS-3PT at D73 (14 nm NW): 120.825 (678-635-3668)
WX AWOS-3 at CVC (17 nm W): 118.725 (770-385-7057)
WX AWOS-3 at 3J7 (19 nm E): 124.525 (706-453-0017)

Nearby radio navigation aids

VOR radial/distance  VOR name  Freq  Var
AHNr205/23.1ATHENS VOR/DME109.6000E

 
NDB name  Hdg/Dist  Freq  Var  ID
ALCOVY101/13.337003WVOF ...- --- ..-.
BARROW COUNTY175/20.640405WBMW -... -- .--
CULVR330/32.238004WUMB ..- -- -...

Airport Services

Runway Information

Runway 2/20

Dimensions: 2000 x 45 ft. / 610 x 14 m
Surface: turf
RUNWAY 2  RUNWAY 20
Traffic pattern: leftleft
Obstructions: 25 ft. pline, marked and lighted, 200 ft. from runway20 ft. trees, 150 ft. from runway

Airport Ownership and Management from official FAA records

Ownership: Privately-owned
Owner: CATHERINE AND ROLAND LEWAN
1421 MCHENRY CROSSING
MADISON, GA 30650
Phone 706-342-3965
Manager: CATHERINE AND ROLAND LEWAN
1421 MCHENRY CROSSING
MADISON, GA 30650
Phone 706-342-3965

Additional Remarks

FOR CD CTC ATLANTA APCH AT 678-364-6131, WHEN APCH CLSD CTC ATLANTA ARTCC AT 770-210-7692.

Instrument Procedures

There are no published instrument procedures at GA50.

Some nearby airports with instrument procedures:

52A - Madison Municipal Airport (3 nm E)
D73 - Cy Nunnally Memorial Airport (14 nm NW)
KCVC - Covington Municipal Airport (17 nm W)
3J7 - Greene County Regional Airport (19 nm E)
KAHN - Athens/Ben Epps Airport (23 nm NE)
 
Loc | Ops | Rwys | IFR | FBO | Links
Com | Nav | Svcs | Stats | Notes
Area around GA50 (Dream Team Airport)
 
Road maps at: MapQuest Bing Google
 
Aerial photo
No photo
 
Sectional chart

 
Airport distance calculator
Flying to Dream Team Airport? Find the distance to fly.

From to GA50

Sunrise and sunset
Times for 28-Nov-2021
 Local
(UTC-5)
 Zulu
(UTC)
Morning civil twilight06:5211:52
Sunrise07:1912:19
Sunset17:2522:25
Evening civil twilight17:5222:52

Current date and time
Zulu (UTC)  28-Nov-2021 22:21:38
Local (UTC-5)  28-Nov-2021 17:21:38
 
METAR
KD73 
14nm NW 
282155Z AUTO 00000KT 10SM CLR 12/01 A2995 RMK AO2 T01240009
KCVC 
17nm W 
282159Z AUTO 27003KT 10SM CLR 13/02 A2995 RMK AO2
K3J7 
19nm E 
282155Z AUTO 26004KT 10SM CLR 13/01 A2994 RMK AO2
KAHN 
23nm NE 
282151Z 24005KT 10SM CLR 14/01 A2993 RMK AO2 SLP136 T01390006
KWDR 
24nm N 
282155Z AUTO 24004KT 10SM CLR 12/00 A2996 RMK AO2
TAF
KAHN 
23nm NE 
281738Z 2818/2918 28006KT P6SM BKN250 FM290000 29006KT P6SM FEW250 FM291500 02004KT P6SM SKC FM291700 33004KT P6SM SKC
NOTAMs
Click for the latest NOTAMs
NOTAMs are issued by the DoD/FAA and will open in a separate window not controlled by AirNav.

 

 
 

Would you like to see your business listed on this page?

 If your business provides an interesting product or service to pilots, flight crews, aircraft, or users of the Dream Team Airport, you should consider listing it here.  To start the listing process, click on the button below
 
Add a business
 

Other Pages about Dream Team Airport

Update a link
 
Copyright © AirNav, LLC. All rights reserved. Privacy Policy  Contact